Time;durP1;ratioP1;P1;durP2;ratioP2;P2;SDS_P1;SDS_P2;PMS_P1;PMS_P2;Temp;Humidity;BMP_temperature;BMP_pressure;BME280_temperature;BME280_humidity;BME280_pressure;Samples;Min_cycle;Max_cycle;Signal;HPM_P1;HPM_P2
2024/03/21 00:04:18;;;;;;;37.13;27.93;;;;;9.30;101501.00;;;;9949002;29;20229;-76
2024/03/21 00:09:20;;;;;;;47.73;34.60;;;;;9.40;101508.00;;;;9980501;29;20688;-77
2024/03/21 00:14:22;;;;;;;49.73;35.00;;;;;9.70;101505.00;;;;9973454;29;20233;-77
2024/03/21 00:19:23;;;;;;;51.97;35.87;;;;;9.90;101518.00;;;;9951547;29;20355;-77
2024/03/21 00:24:24;;;;;;;48.73;34.47;;;;;10.10;101529.00;;;;9957180;29;20814;-78
2024/03/21 00:29:25;;;;;;;50.53;34.87;;;;;10.30;101537.00;;;;9976113;29;20316;-77
2024/03/21 00:34:27;;;;;;;51.13;34.90;;;;;10.30;101543.00;;;;9968962;29;20301;-77
2024/03/21 00:39:28;;;;;;;55.83;37.93;;;;;10.30;101557.00;;;;9944588;29;20240;-79
2024/03/21 00:44:29;;;;;;;49.73;35.40;;;;;10.20;101563.00;;;;9968171;29;20589;-78
2024/03/21 00:49:31;;;;;;;52.53;36.07;;;;;10.10;101563.00;;;;9944185;29;20269;-79
2024/03/21 00:54:37;;;;;;;52.73;36.37;;;;;10.00;101575.00;;;;9959279;29;20253;-77
2024/03/21 00:59:38;;;;;;;47.53;36.33;;;;;9.90;101580.00;;;;9944632;29;20230;-77
2024/03/21 01:04:41;;;;;;;55.87;37.67;;;;;9.80;101571.00;;;;9978880;29;20240;-77
2024/03/21 01:09:42;;;;;;;52.20;38.07;;;;;9.80;101582.00;;;;9988005;29;20305;-81
2024/03/21 01:14:43;;;;;;;51.17;35.43;;;;;9.70;101579.00;;;;9976827;29;20229;-81
2024/03/21 01:19:44;;;;;;;51.93;37.00;;;;;9.60;101567.00;;;;9960205;29;20270;-81
2024/03/21 01:24:48;;;;;;;51.80;35.07;;;;;9.60;101565.00;;;;9993038;29;20262;-81
2024/03/21 01:29:51;;;;;;;50.53;35.40;;;;;9.50;101568.00;;;;9950142;29;20308;-81
2024/03/21 01:34:52;;;;;;;52.93;37.30;;;;;9.50;101578.00;;;;9948013;29;20268;-81
2024/03/21 01:39:54;;;;;;;59.70;37.00;;;;;9.50;101581.00;;;;9973569;29;20764;-81
2024/03/21 01:45:05;;;;;;;62.23;37.80;;;;;9.40;101564.00;;;;9963099;29;20237;-82
2024/03/21 01:50:07;;;;;;;55.63;37.27;;;;;9.30;101556.00;;;;9993872;29;20249;-81
2024/03/21 01:55:14;;;;;;;55.93;36.70;;;;;9.10;101552.00;;;;9956526;29;20341;-81
2024/03/21 02:00:15;;;;;;;54.07;36.23;;;;;9.00;101558.00;;;;9959630;29;20893;-81
2024/03/21 02:05:16;;;;;;;56.47;38.37;;;;;8.90;101558.00;;;;9947055;29;20874;-81
2024/03/21 02:10:18;;;;;;;51.47;36.77;;;;;9.00;101561.00;;;;9946911;29;20832;-81
2024/03/21 02:15:20;;;;;;;54.27;38.20;;;;;9.00;101543.00;;;;9947844;29;20238;-81
2024/03/21 02:20:21;;;;;;;58.40;38.77;;;;;9.20;101544.00;;;;9971521;29;20260;-83
2024/03/21 02:25:22;;;;;;;59.83;38.00;;;;;9.30;101550.00;;;;9988747;29;20286;-83
2024/03/21 02:30:23;;;;;;;56.67;38.23;;;;;9.30;101547.00;;;;9946471;29;20326;-83
2024/03/21 02:35:24;;;;;;;53.77;34.93;;;;;9.20;101555.00;;;;9968673;29;20327;-84
2024/03/21 02:40:25;;;;;;;54.93;34.07;;;;;9.00;101542.00;;;;9969577;29;20317;-83
2024/03/21 02:45:27;;;;;;;48.30;32.63;;;;;8.80;101551.00;;;;9960663;29;20261;-84
2024/03/21 02:50:28;;;;;;;54.87;34.03;;;;;8.70;101552.00;;;;9956532;29;20285;-84
2024/03/21 02:55:29;;;;;;;53.30;34.27;;;;;8.60;101564.00;;;;9946067;29;20236;-84
2024/03/21 03:00:30;;;;;;;58.67;36.47;;;;;8.60;101580.00;;;;9965045;29;20253;-83
2024/03/21 03:05:31;;;;;;;60.00;39.17;;;;;8.70;101579.00;;;;9951057;29;20734;-84
2024/03/21 03:10:33;;;;;;;59.83;37.97;;;;;8.70;101582.00;;;;9959092;29;20229;-84
2024/03/21 03:15:34;;;;;;;65.83;40.43;;;;;8.60;101592.00;;;;9960772;29;20681;-83
2024/03/21 03:20:35;;;;;;;69.13;42.43;;;;;8.70;101614.00;;;;9995703;29;20252;-84
2024/03/21 03:25:40;;;;;;;70.10;44.43;;;;;8.70;101617.00;;;;9948238;29;20343;-83
2024/03/21 03:30:41;;;;;;;72.23;44.33;;;;;8.70;101606.00;;;;9975856;29;20241;-81
2024/03/21 03:35:44;;;;;;;71.23;46.30;;;;;8.60;101613.00;;;;9961764;29;20241;-81
2024/03/21 03:40:45;;;;;;;71.13;48.03;;;;;8.60;101614.00;;;;9947764;29;20293;-81
2024/03/21 03:45:48;;;;;;;74.73;49.17;;;;;8.60;101626.00;;;;9976910;29;20241;-81
2024/03/21 03:50:49;;;;;;;80.87;47.53;;;;;8.50;101641.00;;;;9964734;29;20225;-81
2024/03/21 03:55:50;;;;;;;76.23;48.37;;;;;8.50;101642.00;;;;9991392;29;20290;-81
2024/03/21 04:00:59;;;;;;;78.60;49.97;;;;;8.50;101653.00;;;;9951024;29;20743;-81
2024/03/21 04:06:02;;;;;;;74.80;48.20;;;;;8.50;101666.00;;;;9947092;29;20281;-81
2024/03/21 04:11:04;;;;;;;78.87;48.77;;;;;8.50;101662.00;;;;9965080;29;20284;-81
2024/03/21 04:16:05;;;;;;;76.13;46.50;;;;;8.40;101662.00;;;;9945387;29;20786;-81
2024/03/21 04:21:06;;;;;;;81.43;47.50;;;;;8.40;101662.00;;;;9982364;29;20378;-81
2024/03/21 04:26:07;;;;;;;75.43;46.83;;;;;8.40;101670.00;;;;9950034;29;20312;-81
2024/03/21 04:31:08;;;;;;;75.90;45.60;;;;;8.40;101662.00;;;;9972811;29;20237;-81
2024/03/21 04:36:10;;;;;;;72.37;45.43;;;;;8.40;101668.00;;;;9964533;29;20226;-81
2024/03/21 04:41:11;;;;;;;76.97;46.17;;;;;8.40;101677.00;;;;9949462;29;20225;-78
2024/03/21 04:46:12;;;;;;;78.30;48.10;;;;;8.40;101680.00;;;;9987407;29;20970;-78
2024/03/21 04:51:13;;;;;;;86.40;48.27;;;;;8.40;101687.00;;;;9979887;29;20335;-77
2024/03/21 04:56:14;;;;;;;72.67;46.03;;;;;8.30;101705.00;;;;9974157;29;20755;-77
2024/03/21 05:01:17;;;;;;;71.57;45.73;;;;;8.40;101710.00;;;;9960695;29;20852;-77
2024/03/21 05:06:18;;;;;;;72.80;43.60;;;;;8.40;101718.00;;;;9937611;29;20317;-77
2024/03/21 05:11:19;;;;;;;75.77;47.53;;;;;8.40;101714.00;;;;9959243;29;20237;-78
2024/03/21 05:16:20;;;;;;;67.10;42.27;;;;;8.50;101723.00;;;;9937741;29;20644;-80
2024/03/21 05:21:25;;;;;;;82.27;45.73;;;;;8.60;101726.00;;;;9957833;29;20234;-78
2024/03/21 05:26:26;;;;;;;74.23;44.60;;;;;8.60;101738.00;;;;9955635;29;20234;-78
2024/03/21 05:31:27;;;;;;;82.77;44.90;;;;;8.60;101740.00;;;;9939584;29;20458;-79
2024/03/21 05:36:29;;;;;;;88.70;48.20;;;;;8.70;101749.00;;;;9965746;29;20269;-77
2024/03/21 05:41:30;;;;;;;91.00;48.33;;;;;8.70;101762.00;;;;9959589;29;20233;-80
2024/03/21 05:46:31;;;;;;;85.17;48.37;;;;;8.70;101756.00;;;;9983623;29;20328;-78
2024/03/21 05:51:33;;;;;;;79.57;45.60;;;;;8.80;101748.00;;;;9952916;29;20247;-82
2024/03/21 05:56:35;;;;;;;93.07;49.07;;;;;8.90;101767.00;;;;9986387;29;20914;-80
2024/03/21 06:01:36;;;;;;;96.03;48.63;;;;;8.90;101772.00;;;;9964080;29;20320;-81
2024/03/21 06:06:37;;;;;;;100.73;49.27;;;;;9.00;101777.00;;;;9966391;29;20233;-81
2024/03/21 06:11:38;;;;;;;92.90;49.73;;;;;9.10;101792.00;;;;9952248;29;20257;-81
2024/03/21 06:16:39;;;;;;;88.03;46.23;;;;;9.10;101791.00;;;;9970215;29;20264;-81
2024/03/21 06:21:40;;;;;;;86.60;45.37;;;;;9.10;101794.00;;;;9954065;29;20813;-81
2024/03/21 06:26:42;;;;;;;85.03;45.67;;;;;9.20;101804.00;;;;9990120;29;20229;-81
2024/03/21 06:31:43;;;;;;;73.53;42.67;;;;;9.20;101818.00;;;;9966032;29;20236;-82
2024/03/21 06:36:44;;;;;;;54.43;31.50;;;;;9.30;101825.00;;;;9961311;29;20280;-82
2024/03/21 06:41:45;;;;;;;41.73;27.00;;;;;9.40;101831.00;;;;9965343;29;20814;-82
2024/03/21 06:46:46;;;;;;;30.60;20.80;;;;;9.50;101836.00;;;;9966880;29;20304;-81
2024/03/21 06:51:48;;;;;;;25.80;18.67;;;;;9.70;101836.00;;;;9973824;29;20222;-81
2024/03/21 06:56:49;;;;;;;19.20;14.60;;;;;9.70;101841.00;;;;9991980;29;20689;-81
2024/03/21 07:01:51;;;;;;;20.10;14.97;;;;;9.80;101844.00;;;;9969430;29;20308;-83
2024/03/21 07:06:52;;;;;;;21.97;15.50;;;;;9.90;101864.00;;;;9969426;29;20232;-83
2024/03/21 07:11:53;;;;;;;16.97;12.90;;;;;9.80;101882.00;;;;9988471;29;20328;-82
2024/03/21 07:16:54;;;;;;;23.03;14.67;;;;;9.80;101891.00;;;;9974226;29;20229;-83
2024/03/21 07:21:55;;;;;;;18.47;11.33;;;;;9.70;101901.00;;;;9942428;29;20660;-83
2024/03/21 07:26:58;;;;;;;15.20;10.43;;;;;9.50;101914.00;;;;9978364;29;20320;-84
2024/03/21 07:32:04;;;;;;;15.00;8.93;;;;;9.40;101914.00;;;;9983421;29;20229;-83
2024/03/21 07:37:05;;;;;;;13.73;7.50;;;;;9.40;101917.00;;;;9973303;29;20244;-84
2024/03/21 07:42:07;;;;;;;14.27;8.33;;;;;9.30;101936.00;;;;9963819;29;20262;-83
2024/03/21 07:47:08;;;;;;;29.47;11.90;;;;;9.20;101939.00;;;;9968740;29;20943;-83
2024/03/21 07:52:10;;;;;;;41.50;16.87;;;;;9.20;101953.00;;;;9968408;29;20232;-83
2024/03/21 07:57:11;;;;;;;44.10;17.30;;;;;9.20;101957.00;;;;9999606;29;20267;-83
2024/03/21 08:02:12;;;;;;;43.70;17.97;;;;;9.20;101975.00;;;;9969165;29;20278;-83
2024/03/21 08:07:13;;;;;;;42.10;15.40;;;;;9.30;101983.00;;;;9947951;29;20270;-83
2024/03/21 08:12:14;;;;;;;38.33;16.63;;;;;9.30;101985.00;;;;9947779;29;21200;-83
2024/03/21 08:17:15;;;;;;;29.67;13.50;;;;;9.40;101984.00;;;;9954412;29;20865;-83
2024/03/21 08:22:17;;;;;;;38.53;17.13;;;;;9.50;101990.00;;;;9947485;29;20234;-84
2024/03/21 08:27:19;;;;;;;39.33;17.37;;;;;9.60;101996.00;;;;9961602;29;20257;-83
2024/03/21 08:32:23;;;;;;;22.03;12.07;;;;;9.70;101987.00;;;;9959575;29;20915;-83
2024/03/21 08:37:24;;;;;;;30.97;16.07;;;;;9.80;101991.00;;;;9948121;29;20257;-83
2024/03/21 08:42:25;;;;;;;39.87;19.93;;;;;9.70;102003.00;;;;9960630;29;20316;-83
2024/03/21 08:47:26;;;;;;;49.90;23.97;;;;;9.80;102004.00;;;;9941263;29;20280;-83
2024/03/21 08:52:28;;;;;;;38.10;18.37;;;;;9.90;102016.00;;;;9973832;29;20221;-83
2024/03/21 08:57:31;;;;;;;46.30;22.50;;;;;10.00;102021.00;;;;9969008;29;20242;-83
2024/03/21 09:02:33;;;;;;;40.57;20.17;;;;;10.20;102034.00;;;;9956258;29;20324;-83
2024/03/21 09:07:34;;;;;;;44.53;22.53;;;;;10.20;102036.00;;;;9940279;29;20290;-83
2024/03/21 09:12:36;;;;;;;31.93;16.57;;;;;10.50;102039.00;;;;9976731;29;20306;-82
2024/03/21 09:17:37;;;;;;;39.47;20.60;;;;;10.40;102046.00;;;;9940585;29;20734;-84
2024/03/21 09:22:39;;;;;;;27.80;18.17;;;;;10.50;102045.00;;;;9940728;29;20860;-80
2024/03/21 09:27:40;;;;;;;34.77;18.80;;;;;10.50;102057.00;;;;9977219;29;20269;-81
2024/03/21 09:32:41;;;;;;;36.53;20.43;;;;;10.70;102051.00;;;;9976100;29;20696;-80
2024/03/21 09:37:43;;;;;;;39.73;21.43;;;;;10.80;102047.00;;;;10000288;29;20240;-80
2024/03/21 09:42:44;;;;;;;37.40;23.63;;;;;11.20;102037.00;;;;9991971;29;20348;-80
2024/03/21 09:47:45;;;;;;;34.57;22.20;;;;;11.30;102031.00;;;;9983365;29;20901;-81
2024/03/21 09:52:47;;;;;;;37.80;21.27;;;;;11.40;102042.00;;;;9970994;29;20340;-80
2024/03/21 09:57:48;;;;;;;29.30;19.70;;;;;11.80;102043.00;;;;10005216;29;20232;-81
2024/03/21 10:02:49;;;;;;;22.77;16.53;;;;;11.60;102047.00;;;;9971859;29;20229;-80
2024/03/21 10:07:50;;;;;;;16.40;13.47;;;;;11.60;102054.00;;;;9972080;29;20233;-81
2024/03/21 10:12:52;;;;;;;15.90;13.30;;;;;11.70;102041.00;;;;9967910;29;20236;-81
2024/03/21 10:17:53;;;;;;;17.80;13.03;;;;;11.60;102059.00;;;;9963281;29;20302;-80
2024/03/21 10:22:54;;;;;;;19.33;13.60;;;;;11.40;102066.00;;;;10000220;29;20312;-80
2024/03/21 10:27:55;;;;;;;15.77;13.00;;;;;11.60;102077.00;;;;9972517;29;20603;-80
2024/03/21 10:32:59;;;;;;;13.87;12.43;;;;;12.20;102075.00;;;;9985376;29;20337;-80
2024/03/21 10:38:01;;;;;;;20.27;14.20;;;;;12.20;102076.00;;;;9969708;29;20222;-80
2024/03/21 10:43:03;;;;;;;15.13;12.43;;;;;12.30;102074.00;;;;9953455;29;21762;-81
2024/03/21 10:48:06;;;;;;;13.37;11.97;;;;;12.00;102072.00;;;;9951650;29;20218;-80
2024/03/21 10:53:19;;;;;;;13.73;11.03;;;;;12.30;102080.00;;;;9961622;29;21282;-80
2024/03/21 10:58:28;;;;;;;11.87;10.50;;;;;12.60;102080.00;;;;9971727;29;20241;-80
2024/03/21 11:03:30;;;;;;;13.23;9.93;;;;;13.30;102088.00;;;;9972597;29;20576;-79
2024/03/21 11:08:31;;;;;;;11.23;10.13;;;;;13.90;102079.00;;;;9967876;29;20233;-80
2024/03/21 11:13:33;;;;;;;10.23;9.10;;;;;14.00;102073.00;;;;9969378;29;20237;-79
2024/03/21 11:18:34;;;;;;;11.10;9.33;;;;;14.30;102084.00;;;;9954277;29;20225;-81
2024/03/21 11:23:36;;;;;;;10.32;9.18;;;;;14.30;102094.00;;;;9967028;29;20234;-80
2024/03/21 11:28:37;;;;;;;12.13;8.77;;;;;13.10;102094.00;;;;9965517;29;20233;-80
2024/03/21 11:33:38;;;;;;;11.70;9.07;;;;;12.70;102088.00;;;;9968913;29;20246;-80
2024/03/21 11:38:39;;;;;;;11.87;9.07;;;;;12.80;102089.00;;;;9961516;29;20589;-82
2024/03/21 11:43:41;;;;;;;11.37;10.27;;;;;12.90;102109.00;;;;9962107;29;20230;-83
2024/03/21 11:48:42;;;;;;;12.90;10.00;;;;;12.50;102097.00;;;;9961790;29;20333;-82
2024/03/21 11:53:43;;;;;;;12.60;10.63;;;;;12.20;102122.00;;;;9973303;29;20605;-83
2024/03/21 11:58:44;;;;;;;12.80;11.03;;;;;12.70;102106.00;;;;9980033;29;20332;-82
2024/03/21 12:03:45;;;;;;;12.57;10.47;;;;;13.40;102113.00;;;;9960834;29;20813;-83
2024/03/21 12:08:49;;;;;;;11.57;9.80;;;;;13.50;102105.00;;;;9950822;29;20225;-83
2024/03/21 12:13:51;;;;;;;13.20;10.50;;;;;13.70;102072.00;;;;9949634;29;20290;-82
2024/03/21 12:18:52;;;;;;;11.70;10.33;;;;;13.70;102071.00;;;;9954213;29;20241;-81
2024/03/21 12:23:57;;;;;;;13.57;11.57;;;;;13.10;102081.00;;;;9951818;29;20237;-82
2024/03/21 12:29:00;;;;;;;15.13;12.50;;;;;13.20;102069.00;;;;9949311;29;20260;-82
2024/03/21 12:34:01;;;;;;;20.90;14.57;;;;;13.70;102068.00;;;;9955796;29;20239;-83
2024/03/21 12:39:02;;;;;;;20.87;15.47;;;;;13.90;102073.00;;;;9941874;29;20884;-80
2024/03/21 12:44:03;;;;;;;19.37;15.20;;;;;13.90;102068.00;;;;9961446;29;20234;-81
2024/03/21 12:49:05;;;;;;;31.67;19.30;;;;;14.20;102056.00;;;;9952103;29;20229;-81
2024/03/21 12:54:06;;;;;;;34.60;23.00;;;;;14.30;102068.00;;;;9976461;29;20237;-80
2024/03/21 12:59:08;;;;;;;41.22;27.75;;;;;14.40;102073.00;;;;9982635;29;20229;-80
2024/03/21 13:04:09;;;;;;;41.97;29.60;;;;;14.90;102071.00;;;;9985716;29;20241;-81
2024/03/21 13:09:10;;;;;;;45.92;29.83;;;;;15.00;102062.00;;;;9956886;29;20676;-82
2024/03/21 13:14:11;;;;;;;47.70;31.77;;;;;15.00;102059.00;;;;9956312;29;20339;-81
2024/03/21 13:19:12;;;;;;;51.25;33.05;;;;;14.80;102058.00;;;;9956278;29;20308;-79
2024/03/21 13:24:14;;;;;;;51.20;31.92;;;;;14.70;102048.00;;;;9956932;29;20225;-81
2024/03/21 13:29:16;;;;;;;41.38;29.42;;;;;14.60;102060.00;;;;9984493;29;20241;-81
2024/03/21 13:34:18;;;;;;;36.22;25.90;;;;;14.90;102056.00;;;;9973794;29;20233;-81
2024/03/21 13:39:20;;;;;;;27.67;19.58;;;;;15.30;102063.00;;;;9960875;29;20641;-81
2024/03/21 13:44:22;;;;;;;21.63;16.38;;;;;15.20;102049.00;;;;9941577;29;20237;-82
2024/03/21 13:49:23;;;;;;;21.55;14.88;;;;;14.90;102056.00;;;;9961132;29;20241;-82
2024/03/21 13:54:24;;;;;;;16.17;12.52;;;;;15.20;102049.00;;;;9940583;29;20241;-81
2024/03/21 13:59:26;;;;;;;13.70;10.18;;;;;15.50;102035.00;;;;9961285;29;20233;-80
2024/03/21 14:04:27;;;;;;;11.35;10.15;;;;;15.20;102031.00;;;;9942901;29;20277;-81
2024/03/21 14:09:28;;;;;;;11.60;9.57;;;;;15.30;102031.00;;;;9950522;29;20230;-81
2024/03/21 14:14:29;;;;;;;11.32;8.77;;;;;15.70;102006.00;;;;9968145;29;20321;-81
2024/03/21 14:19:30;;;;;;;8.13;7.43;;;;;16.40;102008.00;;;;9966970;29;20267;-82
2024/03/21 14:24:31;;;;;;;9.75;7.50;;;;;16.40;102025.00;;;;9982769;29;20308;-80
2024/03/21 14:29:33;;;;;;;8.65;6.82;;;;;16.10;102015.00;;;;9980146;29;20244;-80
2024/03/21 14:34:34;;;;;;;9.38;7.47;;;;;15.90;102003.00;;;;9991827;29;20261;-80
2024/03/21 14:39:35;;;;;;;9.57;7.78;;;;;15.80;102004.00;;;;9965030;29;20839;-80
2024/03/21 14:44:36;;;;;;;7.65;6.85;;;;;15.60;101992.00;;;;9973731;29;20312;-81
2024/03/21 14:49:38;;;;;;;7.47;6.45;;;;;15.80;101982.00;;;;9982725;29;20350;-81
2024/03/21 14:54:39;;;;;;;9.23;6.20;;;;;15.90;101987.00;;;;9976581;29;20290;-79
2024/03/21 14:59:41;;;;;;;10.75;7.00;;;;;15.80;101988.00;;;;9982590;29;20233;-81
2024/03/21 15:04:42;;;;;;;6.95;5.93;;;;;15.60;101979.00;;;;9958091;29;20241;-80
2024/03/21 15:09:44;;;;;;;8.80;6.45;;;;;15.50;101970.00;;;;10001987;29;20804;-78
2024/03/21 15:14:46;;;;;;;8.52;6.18;;;;;15.30;101971.00;;;;9989018;29;20715;-79
2024/03/21 15:19:47;;;;;;;7.65;5.78;;;;;15.40;101967.00;;;;9982473;29;21023;-78
2024/03/21 15:24:48;;;;;;;7.45;6.38;;;;;15.70;101961.00;;;;9979982;29;20359;-77
2024/03/21 15:29:50;;;;;;;10.88;7.10;;;;;16.10;101961.00;;;;9979059;29;20250;-78
2024/03/21 15:34:54;;;;;;;11.55;6.95;;;;;16.50;101949.00;;;;9959109;29;20320;-79
2024/03/21 15:40:12;;;;;;;8.07;6.85;;;;;16.50;101958.00;;;;9954592;29;20230;-78
2024/03/21 15:45:14;;;;;;;8.23;6.78;;;;;16.10;101949.00;;;;9974720;29;20258;-77
2024/03/21 15:50:15;;;;;;;8.18;6.75;;;;;15.90;101948.00;;;;9952218;29;20673;-78
2024/03/21 15:55:17;;;;;;;9.52;7.18;;;;;15.40;101944.00;;;;9940896;29;20248;-78
2024/03/21 16:00:19;;;;;;;11.32;8.18;;;;;15.10;101937.00;;;;9982580;29;20237;-79
2024/03/21 16:05:20;;;;;;;9.35;6.93;;;;;14.90;101935.00;;;;9967711;29;20253;-78
2024/03/21 16:10:22;;;;;;;9.13;7.35;;;;;14.80;101924.00;;;;9978848;29;20367;-77
2024/03/21 16:15:27;;;;;;;7.82;6.65;;;;;14.70;101914.00;;;;9962879;29;20240;-78
2024/03/21 16:20:29;;;;;;;11.27;9.18;;;;;14.60;101921.00;;;;9971661;29;20265;-81
2024/03/21 16:25:30;;;;;;;9.00;7.85;;;;;14.50;101919.00;;;;9963689;29;20241;-81
2024/03/21 16:30:31;;;;;;;9.68;8.55;;;;;14.40;101916.00;;;;9972396;29;20264;-81
2024/03/21 16:35:32;;;;;;;11.38;9.13;;;;;14.20;101897.00;;;;9963442;29;20230;-81
2024/03/21 16:40:33;;;;;;;10.30;8.85;;;;;14.00;101904.00;;;;9973262;29;20278;-81
2024/03/21 16:45:34;;;;;;;13.18;9.15;;;;;13.90;101909.00;;;;9974488;29;20229;-81
2024/03/21 16:50:36;;;;;;;12.95;9.65;;;;;13.80;101935.00;;;;9980053;29;20340;-81
2024/03/21 16:55:37;;;;;;;15.47;10.30;;;;;13.70;101942.00;;;;9984728;29;20981;-81
2024/03/21 17:00:38;;;;;;;11.63;9.90;;;;;13.70;101952.00;;;;9977763;29;20338;-81
2024/03/21 17:05:39;;;;;;;15.33;11.60;;;;;13.60;101963.00;;;;9968246;29;20751;-81
2024/03/21 17:10:43;;;;;;;17.00;10.97;;;;;13.50;101966.00;;;;9952975;29;20236;-81
2024/03/21 17:15:58;;;;;;;17.87;12.63;;;;;13.40;101972.00;;;;9951196;29;20241;-81
2024/03/21 17:20:59;;;;;;;17.67;12.93;;;;;13.20;101974.00;;;;9958838;29;20242;-81
2024/03/21 17:26:02;;;;;;;20.07;13.10;;;;;13.10;101968.00;;;;9945459;29;20233;-81
2024/03/21 17:31:03;;;;;;;21.67;14.40;;;;;12.90;101976.00;;;;9953454;29;20737;-81
2024/03/21 17:36:05;;;;;;;22.67;15.63;;;;;12.80;101967.00;;;;9960364;29;20316;-81
2024/03/21 17:41:06;;;;;;;23.27;15.90;;;;;12.60;101960.00;;;;9986212;29;20237;-80
2024/03/21 17:46:07;;;;;;;26.27;17.13;;;;;12.50;101963.00;;;;9996130;29;20261;-81
2024/03/21 17:51:08;;;;;;;24.57;16.90;;;;;12.30;101963.00;;;;9973518;29;20225;-80
2024/03/21 17:56:10;;;;;;;24.87;15.90;;;;;12.20;101965.00;;;;9950560;29;20229;-81
2024/03/21 18:01:11;;;;;;;28.80;17.27;;;;;12.20;101975.00;;;;9968507;29;20316;-80
2024/03/21 18:06:12;;;;;;;28.50;16.93;;;;;12.10;101977.00;;;;9953569;29;20268;-81
2024/03/21 18:11:14;;;;;;;43.33;23.23;;;;;12.10;101977.00;;;;9969803;29;20265;-81
2024/03/21 18:16:15;;;;;;;43.57;25.33;;;;;12.00;101966.00;;;;9965166;29;20972;-81
2024/03/21 18:21:17;;;;;;;46.83;24.10;;;;;12.00;101961.00;;;;10000770;29;20321;-81
2024/03/21 18:26:19;;;;;;;42.70;23.73;;;;;12.00;101971.00;;;;9949024;29;20331;-81
2024/03/21 18:31:20;;;;;;;45.17;23.40;;;;;12.00;101967.00;;;;9991033;29;20268;-81
2024/03/21 18:36:21;;;;;;;48.17;25.50;;;;;12.00;101957.00;;;;9941896;29;20328;-81
2024/03/21 18:41:22;;;;;;;48.93;25.60;;;;;12.00;101952.00;;;;9958457;29;20229;-80
2024/03/21 18:46:23;;;;;;;46.57;25.97;;;;;12.00;101952.00;;;;9985217;29;20265;-80
2024/03/21 18:51:25;;;;;;;44.00;24.77;;;;;12.00;101950.00;;;;9955772;29;20237;-80
2024/03/21 18:56:26;;;;;;;40.67;22.17;;;;;11.90;101953.00;;;;9943850;29;20229;-80
2024/03/21 19:01:29;;;;;;;40.57;21.40;;;;;12.00;101950.00;;;;9960475;29;20963;-80
2024/03/21 19:06:30;;;;;;;33.40;21.40;;;;;11.90;101934.00;;;;9987331;29;20234;-80
2024/03/21 19:11:31;;;;;;;32.80;21.40;;;;;12.00;101937.00;;;;9947489;29;20373;-80
2024/03/21 19:16:33;;;;;;;36.53;21.17;;;;;12.00;101940.00;;;;9963590;29;20377;-79
2024/03/21 19:21:34;;;;;;;34.93;21.07;;;;;12.00;101934.00;;;;9959397;29;20233;-80
2024/03/21 19:26:35;;;;;;;43.33;25.77;;;;;12.00;101935.00;;;;9951975;29;20233;-81
2024/03/21 19:31:37;;;;;;;34.90;22.47;;;;;12.00;101920.00;;;;9948759;29;20244;-80
2024/03/21 19:36:38;;;;;;;34.33;21.73;;;;;12.00;101920.00;;;;9967274;29;20281;-80
2024/03/21 19:41:39;;;;;;;34.97;22.03;;;;;12.00;101922.00;;;;9954076;29;20719;-80
2024/03/21 19:46:40;;;;;;;35.87;21.67;;;;;11.90;101920.00;;;;9969527;29;20285;-80
2024/03/21 19:51:41;;;;;;;36.57;21.93;;;;;11.80;101912.00;;;;9977287;29;20225;-79
2024/03/21 19:56:42;;;;;;;39.70;23.57;;;;;11.80;101912.00;;;;9963949;29;20682;-79
2024/03/21 20:01:43;;;;;;;43.63;24.90;;;;;11.70;101909.00;;;;9963842;29;20233;-78
2024/03/21 20:06:45;;;;;;;48.10;26.27;;;;;11.70;101901.00;;;;9967909;29;20237;-78
2024/03/21 20:11:48;;;;;;;49.27;27.03;;;;;11.60;101900.00;;;;9965083;29;20228;-79
2024/03/21 20:16:50;;;;;;;47.40;26.70;;;;;11.60;101888.00;;;;9971086;29;20347;-79
2024/03/21 20:21:51;;;;;;;49.57;26.70;;;;;11.50;101888.00;;;;9951190;29;20249;-79
2024/03/21 20:26:52;;;;;;;44.10;27.77;;;;;11.60;101872.00;;;;9975408;29;20311;-78
2024/03/21 20:31:53;;;;;;;48.60;28.77;;;;;11.60;101876.00;;;;9994225;29;20225;-79
2024/03/21 20:36:54;;;;;;;48.83;28.57;;;;;11.60;101872.00;;;;9964606;29;20325;-79
2024/03/21 20:41:55;;;;;;;54.07;31.13;;;;;11.60;101870.00;;;;9958132;29;20245;-79
2024/03/21 20:46:56;;;;;;;50.67;30.20;;;;;11.70;101874.00;;;;9963150;29;20217;-78
2024/03/21 20:51:57;;;;;;;56.53;31.37;;;;;11.70;101870.00;;;;10004284;29;20261;-79
2024/03/21 20:56:59;;;;;;;52.93;32.07;;;;;11.80;101863.00;;;;9950771;29;20340;-78
2024/03/21 21:02:00;;;;;;;50.03;29.53;;;;;11.80;101850.00;;;;9977344;29;20233;-77
2024/03/21 21:07:02;;;;;;;52.97;30.07;;;;;11.80;101839.00;;;;9963300;29;20233;-79
2024/03/21 21:12:03;;;;;;;51.80;30.60;;;;;11.90;101838.00;;;;9992745;29;20252;-76
2024/03/21 21:17:04;;;;;;;46.10;27.40;;;;;11.90;101840.00;;;;9954868;29;20316;-78
2024/03/21 21:22:05;;;;;;;51.60;29.43;;;;;11.80;101832.00;;;;9945182;29;20317;-76
2024/03/21 21:27:06;;;;;;;51.53;30.80;;;;;11.80;101829.00;;;;9937370;29;20241;-78
2024/03/21 21:32:07;;;;;;;51.53;30.30;;;;;11.80;101837.00;;;;9948532;29;20243;-78
2024/03/21 21:37:08;;;;;;;45.87;29.20;;;;;11.80;101832.00;;;;9965579;29;20273;-77
2024/03/21 21:42:10;;;;;;;52.87;29.40;;;;;11.80;101835.00;;;;9980262;29;20248;-78
2024/03/21 21:47:11;;;;;;;45.80;27.77;;;;;11.80;101823.00;;;;9970384;29;20237;-76
2024/03/21 21:52:14;;;;;;;53.43;30.87;;;;;11.90;101813.00;;;;9951926;29;20290;-77
2024/03/21 21:57:15;;;;;;;53.07;30.33;;;;;11.90;101811.00;;;;9942678;29;20308;-76
2024/03/21 22:02:17;;;;;;;48.83;31.30;;;;;11.90;101805.00;;;;9958574;29;20933;-76
2024/03/21 22:07:18;;;;;;;47.97;29.37;;;;;11.90;101802.00;;;;9978066;29;20982;-75
2024/03/21 22:12:19;;;;;;;51.40;29.83;;;;;11.80;101799.00;;;;9990105;29;20605;-80
2024/03/21 22:17:20;;;;;;;51.17;30.43;;;;;11.70;101785.00;;;;9975459;29;20516;-80
2024/03/21 22:22:21;;;;;;;48.37;29.93;;;;;11.70;101781.00;;;;9973237;29;20581;-81
2024/03/21 22:27:22;;;;;;;50.33;29.97;;;;;11.70;101775.00;;;;9957919;29;20233;-81
2024/03/21 22:32:23;;;;;;;50.10;30.07;;;;;11.60;101772.00;;;;9935398;29;20234;-82
2024/03/21 22:37:25;;;;;;;51.27;31.93;;;;;11.70;101774.00;;;;9979882;29;20241;-81
2024/03/21 22:42:26;;;;;;;57.63;30.97;;;;;11.70;101765.00;;;;9982207;29;20275;-81
2024/03/21 22:47:27;;;;;;;52.60;32.10;;;;;11.70;101750.00;;;;9966901;29;20264;-81
2024/03/21 22:52:28;;;;;;;52.10;31.73;;;;;11.80;101754.00;;;;9965895;29;20305;-81
2024/03/21 22:57:29;;;;;;;53.13;32.73;;;;;11.80;101751.00;;;;9960242;29;20337;-80
2024/03/21 23:02:30;;;;;;;53.10;32.37;;;;;11.90;101755.00;;;;9961474;29;20259;-81
2024/03/21 23:07:31;;;;;;;58.63;32.10;;;;;12.00;101747.00;;;;9942944;29;20240;-81
2024/03/21 23:12:33;;;;;;;52.63;31.47;;;;;12.00;101738.00;;;;9962731;29;20233;-81
2024/03/21 23:17:34;;;;;;;55.33;32.53;;;;;12.10;101740.00;;;;9953101;29;20584;-81
2024/03/21 23:22:36;;;;;;;51.40;33.53;;;;;12.20;101720.00;;;;9945913;29;20960;-82
2024/03/21 23:27:37;;;;;;;55.73;34.07;;;;;12.20;101708.00;;;;9973652;29;20252;-82
2024/03/21 23:32:39;;;;;;;52.93;34.00;;;;;12.30;101699.00;;;;9977870;29;20272;-82
2024/03/21 23:37:40;;;;;;;49.93;32.20;;;;;12.30;101697.00;;;;9964995;29;20286;-82
2024/03/21 23:42:41;;;;;;;59.23;34.70;;;;;12.30;101694.00;;;;9947603;29;20409;-82
2024/03/21 23:47:42;;;;;;;55.33;35.27;;;;;12.30;101697.00;;;;9960975;29;20959;-82
2024/03/21 23:52:44;;;;;;;51.10;31.97;;;;;12.40;101690.00;;;;9949244;29;20225;-81
2024/03/21 23:57:45;;;;;;;43.50;30.23;;;;;12.40;101687.00;;;;9946469;29;20324;-82
